sensor_id;sensor_type;location;lat;lon;timestamp;pressure;altitude;pressure_sealevel;temperature;humidity
77149;BME280;66122;47.130;16.844;2023-12-14T00:07:02;98484.63;;;4.20;100.00
77149;BME280;66122;47.130;16.844;2023-12-14T00:17:05;98482.06;;;4.19;100.00
77149;BME280;66122;47.130;16.844;2023-12-14T00:27:07;98489.00;;;4.20;100.00
77149;BME280;66122;47.130;16.844;2023-12-14T00:37:10;98506.31;;;4.24;100.00
77149;BME280;66122;47.130;16.844;2023-12-14T00:47:13;98524.00;;;4.19;100.00
77149;BME280;66122;47.130;16.844;2023-12-14T00:57:15;98529.81;;;4.25;100.00
77149;BME280;66122;47.130;16.844;2023-12-14T01:07:18;98542.09;;;4.25;100.00
77149;BME280;66122;47.130;16.844;2023-12-14T01:17:20;98550.38;;;4.16;100.00
77149;BME280;66122;47.130;16.844;2023-12-14T01:27:23;98546.84;;;4.17;100.00
77149;BME280;66122;47.130;16.844;2023-12-14T01:37:25;98558.31;;;4.14;100.00
77149;BME280;66122;47.130;16.844;2023-12-14T01:47:28;98559.16;;;4.15;100.00
77149;BME280;66122;47.130;16.844;2023-12-14T01:57:30;98543.75;;;4.09;100.00
77149;BME280;66122;47.130;16.844;2023-12-14T02:07:33;98556.06;;;4.07;100.00
77149;BME280;66122;47.130;16.844;2023-12-14T02:17:35;98554.59;;;4.01;100.00
77149;BME280;66122;47.130;16.844;2023-12-14T02:27:38;98572.63;;;4.07;100.00
77149;BME280;66122;47.130;16.844;2023-12-14T02:37:41;98568.53;;;4.02;100.00
77149;BME280;66122;47.130;16.844;2023-12-14T02:47:43;98586.53;;;4.09;100.00
77149;BME280;66122;47.130;16.844;2023-12-14T02:57:46;98597.00;;;4.09;100.00
77149;BME280;66122;47.130;16.844;2023-12-14T03:07:49;98615.25;;;4.11;100.00
77149;BME280;66122;47.130;16.844;2023-12-14T03:17:51;98633.44;;;4.15;100.00
77149;BME280;66122;47.130;16.844;2023-12-14T03:27:54;98648.00;;;4.21;100.00
77149;BME280;66122;47.130;16.844;2023-12-14T03:37:56;98635.53;;;4.26;100.00
77149;BME280;66122;47.130;16.844;2023-12-14T03:47:59;98663.16;;;4.33;100.00
77149;BME280;66122;47.130;16.844;2023-12-14T03:58:01;98656.88;;;4.37;100.00
77149;BME280;66122;47.130;16.844;2023-12-14T04:08:04;98671.69;;;4.38;100.00
77149;BME280;66122;47.130;16.844;2023-12-14T04:18:07;98683.59;;;4.45;100.00
77149;BME280;66122;47.130;16.844;2023-12-14T04:28:10;98699.25;;;4.47;100.00
77149;BME280;66122;47.130;16.844;2023-12-14T04:38:13;98684.88;;;4.37;100.00
77149;BME280;66122;47.130;16.844;2023-12-14T04:48:16;98722.03;;;4.46;100.00
77149;BME280;66122;47.130;16.844;2023-12-14T04:58:18;98726.41;;;4.46;100.00
77149;BME280;66122;47.130;16.844;2023-12-14T05:08:21;98746.56;;;4.45;100.00
77149;BME280;66122;47.130;16.844;2023-12-14T05:18:24;98759.44;;;4.50;100.00
77149;BME280;66122;47.130;16.844;2023-12-14T05:28:26;98760.88;;;4.57;100.00
77149;BME280;66122;47.130;16.844;2023-12-14T05:38:29;98767.53;;;4.45;100.00
77149;BME280;66122;47.130;16.844;2023-12-14T05:48:31;98786.53;;;4.50;100.00
77149;BME280;66122;47.130;16.844;2023-12-14T05:58:34;98809.22;;;4.51;100.00
77149;BME280;66122;47.130;16.844;2023-12-14T06:08:37;98814.66;;;4.47;100.00
77149;BME280;66122;47.130;16.844;2023-12-14T06:18:40;98829.06;;;4.38;100.00
77149;BME280;66122;47.130;16.844;2023-12-14T06:28:46;98842.44;;;4.32;100.00
77149;BME280;66122;47.130;16.844;2023-12-14T06:38:48;98857.38;;;4.30;100.00
77149;BME280;66122;47.130;16.844;2023-12-14T06:48:51;98882.00;;;4.26;100.00
77149;BME280;66122;47.130;16.844;2023-12-14T06:58:54;98898.47;;;4.29;100.00
77149;BME280;66122;47.130;16.844;2023-12-14T07:08:56;98915.06;;;4.30;100.00
77149;BME280;66122;47.130;16.844;2023-12-14T07:18:59;98925.56;;;4.30;100.00
77149;BME280;66122;47.130;16.844;2023-12-14T07:29:02;98941.28;;;4.30;100.00
77149;BME280;66122;47.130;16.844;2023-12-14T07:39:04;98955.13;;;4.33;100.00
77149;BME280;66122;47.130;16.844;2023-12-14T07:49:08;98960.31;;;4.35;100.00
77149;BME280;66122;47.130;16.844;2023-12-14T07:59:11;98976.97;;;4.54;100.00
77149;BME280;66122;47.130;16.844;2023-12-14T08:09:14;98989.47;;;4.90;100.00
77149;BME280;66122;47.130;16.844;2023-12-14T08:19:17;98990.81;;;5.19;100.00
77149;BME280;66122;47.130;16.844;2023-12-14T08:29:19;99034.59;;;5.76;100.00
77149;BME280;66122;47.130;16.844;2023-12-14T08:39:23;98997.03;;;6.11;100.00
77149;BME280;66122;47.130;16.844;2023-12-14T08:49:26;99048.53;;;7.37;100.00
77149;BME280;66122;47.130;16.844;2023-12-14T08:59:29;99061.69;;;7.55;100.00
77149;BME280;66122;47.130;16.844;2023-12-14T09:09:32;99071.06;;;7.60;100.00
77149;BME280;66122;47.130;16.844;2023-12-14T09:19:35;99083.91;;;8.78;100.00
77149;BME280;66122;47.130;16.844;2023-12-14T09:29:38;99087.16;;;8.51;100.00
77149;BME280;66122;47.130;16.844;2023-12-14T09:39:40;99099.69;;;8.32;100.00
77149;BME280;66122;47.130;16.844;2023-12-14T09:49:44;99092.63;;;8.64;100.00
77149;BME280;66122;47.130;16.844;2023-12-14T09:59:54;99101.63;;;8.76;100.00
77149;BME280;66122;47.130;16.844;2023-12-14T10:10:13;99101.63;;;9.21;100.00
77149;BME280;66122;47.130;16.844;2023-12-14T10:20:20;99125.59;;;10.74;100.00
77149;BME280;66122;47.130;16.844;2023-12-14T10:30:28;99120.28;;;11.28;100.00
77149;BME280;66122;47.130;16.844;2023-12-14T10:40:34;99120.81;;;11.33;100.00
77149;BME280;66122;47.130;16.844;2023-12-14T10:50:42;99116.25;;;14.01;100.00
77149;BME280;66122;47.130;16.844;2023-12-14T11:00:59;99137.22;;;13.01;100.00
77149;BME280;66122;47.130;16.844;2023-12-14T11:11:04;99138.44;;;12.84;98.98
77149;BME280;66122;47.130;16.844;2023-12-14T11:21:19;99148.44;;;13.87;95.04
77149;BME280;66122;47.130;16.844;2023-12-14T11:31:24;99136.91;;;13.29;83.36
77149;BME280;66122;47.130;16.844;2023-12-14T11:41:28;99162.09;;;14.62;86.55
77149;BME280;66122;47.130;16.844;2023-12-14T11:51:36;99163.84;;;15.91;79.04
77149;BME280;66122;47.130;16.844;2023-12-14T12:02:01;99174.41;;;16.23;76.79
77149;BME280;66122;47.130;16.844;2023-12-14T12:12:07;99190.28;;;14.87;79.16
77149;BME280;66122;47.130;16.844;2023-12-14T12:22:11;99206.38;;;14.30;83.23
77149;BME280;66122;47.130;16.844;2023-12-14T12:32:14;99201.63;;;15.86;77.09
77149;BME280;66122;47.130;16.844;2023-12-14T12:42:17;99211.41;;;14.90;68.63
77149;BME280;66122;47.130;16.844;2023-12-14T12:52:20;99233.59;;;13.41;79.47
77149;BME280;66122;47.130;16.844;2023-12-14T13:02:23;99243.91;;;11.30;88.54
77149;BME280;66122;47.130;16.844;2023-12-14T13:12:26;99264.38;;;10.45;91.62
77149;BME280;66122;47.130;16.844;2023-12-14T13:22:29;99265.44;;;9.98;94.60
77149;BME280;66122;47.130;16.844;2023-12-14T13:32:33;99280.59;;;9.51;97.81
77149;BME280;66122;47.130;16.844;2023-12-14T13:42:36;99312.72;;;8.96;99.56
77149;BME280;66122;47.130;16.844;2023-12-14T13:52:51;99329.03;;;8.38;100.00
77149;BME280;66122;47.130;16.844;2023-12-14T14:02:54;99335.94;;;8.23;100.00
77149;BME280;66122;47.130;16.844;2023-12-14T14:12:57;99356.75;;;8.12;100.00
77149;BME280;66122;47.130;16.844;2023-12-14T14:23:00;99390.09;;;7.96;100.00
77149;BME280;66122;47.130;16.844;2023-12-14T14:33:03;99395.44;;;7.59;100.00
77149;BME280;66122;47.130;16.844;2023-12-14T14:43:06;99418.47;;;7.18;100.00
77149;BME280;66122;47.130;16.844;2023-12-14T14:53:09;99443.16;;;6.96;100.00
77149;BME280;66122;47.130;16.844;2023-12-14T15:03:13;99469.09;;;6.65;100.00
77149;BME280;66122;47.130;16.844;2023-12-14T15:13:16;99492.28;;;6.35;100.00
77149;BME280;66122;47.130;16.844;2023-12-14T15:23:19;99503.44;;;5.98;100.00
77149;BME280;66122;47.130;16.844;2023-12-14T15:33:22;99530.38;;;5.81;100.00
77149;BME280;66122;47.130;16.844;2023-12-14T15:43:25;99516.88;;;5.44;100.00
77149;BME280;66122;47.130;16.844;2023-12-14T15:53:28;99556.66;;;5.33;100.00
77149;BME280;66122;47.130;16.844;2023-12-14T16:03:30;99570.53;;;5.14;100.00
77149;BME280;66122;47.130;16.844;2023-12-14T16:13:36;99596.44;;;4.98;100.00
77149;BME280;66122;47.130;16.844;2023-12-14T16:23:38;99611.03;;;4.82;100.00
77149;BME280;66122;47.130;16.844;2023-12-14T16:33:41;99640.84;;;5.05;100.00
77149;BME280;66122;47.130;16.844;2023-12-14T16:43:43;99655.22;;;5.20;100.00
77149;BME280;66122;47.130;16.844;2023-12-14T16:53:46;99681.84;;;5.36;100.00
77149;BME280;66122;47.130;16.844;2023-12-14T17:03:51;99691.53;;;5.34;100.00
77149;BME280;66122;47.130;16.844;2023-12-14T17:13:54;99711.44;;;5.15;100.00
77149;BME280;66122;47.130;16.844;2023-12-14T17:23:57;99726.63;;;5.33;100.00
77149;BME280;66122;47.130;16.844;2023-12-14T17:33:59;99747.00;;;5.51;100.00
77149;BME280;66122;47.130;16.844;2023-12-14T17:44:02;99766.97;;;5.57;100.00
77149;BME280;66122;47.130;16.844;2023-12-14T17:54:05;99770.38;;;5.60;100.00
77149;BME280;66122;47.130;16.844;2023-12-14T18:04:07;99804.16;;;5.71;100.00
77149;BME280;66122;47.130;16.844;2023-12-14T18:14:10;99815.50;;;5.73;100.00
77149;BME280;66122;47.130;16.844;2023-12-14T18:24:12;99834.59;;;5.78;100.00
77149;BME280;66122;47.130;16.844;2023-12-14T18:34:15;99846.88;;;5.77;100.00
77149;BME280;66122;47.130;16.844;2023-12-14T18:44:18;99872.22;;;5.80;100.00
77149;BME280;66122;47.130;16.844;2023-12-14T18:54:20;99875.97;;;5.73;100.00
77149;BME280;66122;47.130;16.844;2023-12-14T19:04:24;99888.41;;;5.68;100.00
77149;BME280;66122;47.130;16.844;2023-12-14T19:14:26;99910.38;;;5.65;100.00
77149;BME280;66122;47.130;16.844;2023-12-14T19:24:29;99909.63;;;5.62;100.00
77149;BME280;66122;47.130;16.844;2023-12-14T19:34:32;99908.75;;;5.33;100.00
77149;BME280;66122;47.130;16.844;2023-12-14T19:44:35;99932.91;;;5.17;100.00
77149;BME280;66122;47.130;16.844;2023-12-14T19:54:39;99949.72;;;5.11;100.00
77149;BME280;66122;47.130;16.844;2023-12-14T20:04:43;99957.88;;;5.00;100.00
77149;BME280;66122;47.130;16.844;2023-12-14T20:14:46;99982.31;;;5.04;100.00
77149;BME280;66122;47.130;16.844;2023-12-14T20:24:48;99989.09;;;5.11;100.00
77149;BME280;66122;47.130;16.844;2023-12-14T20:34:52;100007.56;;;5.08;100.00
77149;BME280;66122;47.130;16.844;2023-12-14T20:44:54;100002.94;;;5.18;100.00
77149;BME280;66122;47.130;16.844;2023-12-14T20:54:57;100017.47;;;5.29;100.00
77149;BME280;66122;47.130;16.844;2023-12-14T21:05:00;100028.22;;;5.20;100.00
77149;BME280;66122;47.130;16.844;2023-12-14T21:15:03;100021.00;;;4.63;100.00
77149;BME280;66122;47.130;16.844;2023-12-14T21:25:05;100027.16;;;4.27;100.00
77149;BME280;66122;47.130;16.844;2023-12-14T21:35:09;100065.91;;;4.16;100.00
77149;BME280;66122;47.130;16.844;2023-12-14T21:45:11;100071.50;;;4.01;100.00
77149;BME280;66122;47.130;16.844;2023-12-14T21:55:14;100071.13;;;3.77;100.00
77149;BME280;66122;47.130;16.844;2023-12-14T22:05:17;100093.31;;;3.61;100.00
77149;BME280;66122;47.130;16.844;2023-12-14T22:15:20;100122.91;;;3.66;100.00
77149;BME280;66122;47.130;16.844;2023-12-14T22:25:22;100122.22;;;3.57;100.00
77149;BME280;66122;47.130;16.844;2023-12-14T22:35:25;100125.91;;;3.46;100.00
77149;BME280;66122;47.130;16.844;2023-12-14T22:45:28;100138.66;;;3.19;100.00
77149;BME280;66122;47.130;16.844;2023-12-14T22:55:32;100153.56;;;3.15;100.00
77149;BME280;66122;47.130;16.844;2023-12-14T23:05:38;100140.63;;;3.07;100.00
77149;BME280;66122;47.130;16.844;2023-12-14T23:15:40;100150.16;;;3.10;100.00
77149;BME280;66122;47.130;16.844;2023-12-14T23:25:43;100156.53;;;2.95;100.00
77149;BME280;66122;47.130;16.844;2023-12-14T23:35:46;100172.53;;;2.77;100.00
77149;BME280;66122;47.130;16.844;2023-12-14T23:45:52;100186.47;;;2.78;100.00
77149;BME280;66122;47.130;16.844;2023-12-14T23:55:54;100201.50;;;2.65;100.00
